sensor_id;sensor_type;location;lat;lon;timestamp;temperature;humidity
18160;DHT22;9205;52.032;4.314;2024-02-14T00:00:10;9.30;99.90
18160;DHT22;9205;52.032;4.314;2024-02-14T00:02:39;8.80;99.90
18160;DHT22;9205;52.032;4.314;2024-02-14T00:05:07;9.10;99.90
18160;DHT22;9205;52.032;4.314;2024-02-14T00:07:36;9.00;99.90
18160;DHT22;9205;52.032;4.314;2024-02-14T00:10:04;9.20;99.90
18160;DHT22;9205;52.032;4.314;2024-02-14T00:12:32;9.20;99.90
18160;DHT22;9205;52.032;4.314;2024-02-14T00:14:59;8.80;99.90
18160;DHT22;9205;52.032;4.314;2024-02-14T00:17:28;8.90;99.90
18160;DHT22;9205;52.032;4.314;2024-02-14T00:19:55;9.00;99.90
18160;DHT22;9205;52.032;4.314;2024-02-14T00:22:23;8.80;99.90
18160;DHT22;9205;52.032;4.314;2024-02-14T00:24:50;9.10;99.90
18160;DHT22;9205;52.032;4.314;2024-02-14T00:27:17;9.00;99.90
18160;DHT22;9205;52.032;4.314;2024-02-14T00:29:44;9.40;99.90
18160;DHT22;9205;52.032;4.314;2024-02-14T00:32:12;9.60;99.90
18160;DHT22;9205;52.032;4.314;2024-02-14T00:34:41;9.50;99.90
18160;DHT22;9205;52.032;4.314;2024-02-14T00:37:08;9.00;99.90
18160;DHT22;9205;52.032;4.314;2024-02-14T00:39:36;9.40;99.90
18160;DHT22;9205;52.032;4.314;2024-02-14T00:42:03;9.20;99.90
18160;DHT22;9205;52.032;4.314;2024-02-14T00:44:31;9.60;99.90
18160;DHT22;9205;52.032;4.314;2024-02-14T00:46:58;9.00;99.90
18160;DHT22;9205;52.032;4.314;2024-02-14T00:49:27;9.30;99.90
18160;DHT22;9205;52.032;4.314;2024-02-14T00:51:55;9.20;99.90
18160;DHT22;9205;52.032;4.314;2024-02-14T00:54:22;9.20;99.90
18160;DHT22;9205;52.032;4.314;2024-02-14T00:56:49;9.70;99.90
18160;DHT22;9205;52.032;4.314;2024-02-14T00:59:16;9.80;99.90
18160;DHT22;9205;52.032;4.314;2024-02-14T01:01:43;9.50;99.90
18160;DHT22;9205;52.032;4.314;2024-02-14T01:04:11;9.10;99.90
18160;DHT22;9205;52.032;4.314;2024-02-14T01:06:38;9.30;99.90
18160;DHT22;9205;52.032;4.314;2024-02-14T01:09:07;9.80;99.90
18160;DHT22;9205;52.032;4.314;2024-02-14T01:11:34;9.40;99.90
18160;DHT22;9205;52.032;4.314;2024-02-14T01:14:04;9.40;99.90
18160;DHT22;9205;52.032;4.314;2024-02-14T01:16:31;9.80;99.90
18160;DHT22;9205;52.032;4.314;2024-02-14T01:18:58;9.40;99.90
18160;DHT22;9205;52.032;4.314;2024-02-14T01:21:25;9.50;99.90
18160;DHT22;9205;52.032;4.314;2024-02-14T01:23:52;9.60;99.90
18160;DHT22;9205;52.032;4.314;2024-02-14T01:26:21;9.90;99.90
18160;DHT22;9205;52.032;4.314;2024-02-14T01:28:48;10.00;99.90
18160;DHT22;9205;52.032;4.314;2024-02-14T01:31:15;9.90;99.90
18160;DHT22;9205;52.032;4.314;2024-02-14T01:33:42;9.90;99.90
18160;DHT22;9205;52.032;4.314;2024-02-14T01:36:11;10.10;99.90
18160;DHT22;9205;52.032;4.314;2024-02-14T01:38:39;9.70;99.90
18160;DHT22;9205;52.032;4.314;2024-02-14T01:41:06;10.10;99.90
18160;DHT22;9205;52.032;4.314;2024-02-14T01:43:34;9.70;99.90
18160;DHT22;9205;52.032;4.314;2024-02-14T01:46:05;10.20;99.90
18160;DHT22;9205;52.032;4.314;2024-02-14T01:48:34;10.20;99.90
18160;DHT22;9205;52.032;4.314;2024-02-14T01:51:03;10.10;99.90
18160;DHT22;9205;52.032;4.314;2024-02-14T01:53:33;9.70;99.90
18160;DHT22;9205;52.032;4.314;2024-02-14T01:56:00;9.90;99.90
18160;DHT22;9205;52.032;4.314;2024-02-14T01:58:27;10.30;99.90
18160;DHT22;9205;52.032;4.314;2024-02-14T02:00:57;10.30;99.90
18160;DHT22;9205;52.032;4.314;2024-02-14T02:03:25;9.90;99.90
18160;DHT22;9205;52.032;4.314;2024-02-14T02:05:52;9.70;99.90
18160;DHT22;9205;52.032;4.314;2024-02-14T02:08:20;9.80;99.90
18160;DHT22;9205;52.032;4.314;2024-02-14T02:10:48;10.30;99.90
18160;DHT22;9205;52.032;4.314;2024-02-14T02:13:16;9.90;99.90
18160;DHT22;9205;52.032;4.314;2024-02-14T02:15:43;9.90;99.90
18160;DHT22;9205;52.032;4.314;2024-02-14T02:18:12;9.90;99.90
18160;DHT22;9205;52.032;4.314;2024-02-14T02:20:40;10.50;99.90
18160;DHT22;9205;52.032;4.314;2024-02-14T02:23:10;10.60;99.90
18160;DHT22;9205;52.032;4.314;2024-02-14T02:25:40;10.10;99.90
18160;DHT22;9205;52.032;4.314;2024-02-14T02:28:08;10.60;99.90
18160;DHT22;9205;52.032;4.314;2024-02-14T02:30:35;10.60;99.90
18160;DHT22;9205;52.032;4.314;2024-02-14T02:33:03;10.50;99.90
18160;DHT22;9205;52.032;4.314;2024-02-14T02:35:30;10.50;99.90
18160;DHT22;9205;52.032;4.314;2024-02-14T02:37:58;10.20;99.90
18160;DHT22;9205;52.032;4.314;2024-02-14T02:40:26;10.10;99.90
18160;DHT22;9205;52.032;4.314;2024-02-14T02:42:53;10.60;99.90
18160;DHT22;9205;52.032;4.314;2024-02-14T02:45:21;10.60;99.90
18160;DHT22;9205;52.032;4.314;2024-02-14T02:47:48;10.40;99.90
18160;DHT22;9205;52.032;4.314;2024-02-14T02:50:17;10.60;99.90
18160;DHT22;9205;52.032;4.314;2024-02-14T02:52:45;10.70;99.90
18160;DHT22;9205;52.032;4.314;2024-02-14T02:55:12;10.40;99.90
18160;DHT22;9205;52.032;4.314;2024-02-14T02:57:42;10.50;99.90
18160;DHT22;9205;52.032;4.314;2024-02-14T03:00:11;10.80;99.90
18160;DHT22;9205;52.032;4.314;2024-02-14T03:02:39;10.80;99.90
18160;DHT22;9205;52.032;4.314;2024-02-14T03:05:10;10.20;99.90
18160;DHT22;9205;52.032;4.314;2024-02-14T03:07:43;10.40;99.90
18160;DHT22;9205;52.032;4.314;2024-02-14T03:10:12;10.70;99.90
18160;DHT22;9205;52.032;4.314;2024-02-14T03:12:41;10.70;99.90
18160;DHT22;9205;52.032;4.314;2024-02-14T03:15:09;10.70;99.90
18160;DHT22;9205;52.032;4.314;2024-02-14T03:17:37;10.80;99.90
18160;DHT22;9205;52.032;4.314;2024-02-14T03:20:05;10.80;99.90
18160;DHT22;9205;52.032;4.314;2024-02-14T03:22:38;10.90;99.90
18160;DHT22;9205;52.032;4.314;2024-02-14T03:25:09;10.60;99.90
18160;DHT22;9205;52.032;4.314;2024-02-14T03:27:36;10.70;99.90
18160;DHT22;9205;52.032;4.314;2024-02-14T03:30:06;11.00;99.90
18160;DHT22;9205;52.032;4.314;2024-02-14T03:32:34;10.80;99.90
18160;DHT22;9205;52.032;4.314;2024-02-14T03:35:01;10.30;99.90
18160;DHT22;9205;52.032;4.314;2024-02-14T03:37:28;10.50;99.90
18160;DHT22;9205;52.032;4.314;2024-02-14T03:39:56;10.80;99.90
18160;DHT22;9205;52.032;4.314;2024-02-14T03:42:23;10.50;99.90
18160;DHT22;9205;52.032;4.314;2024-02-14T03:44:52;10.80;99.90
18160;DHT22;9205;52.032;4.314;2024-02-14T03:47:27;10.50;99.90
18160;DHT22;9205;52.032;4.314;2024-02-14T03:49:54;11.00;99.90
18160;DHT22;9205;52.032;4.314;2024-02-14T03:52:22;10.80;99.90
18160;DHT22;9205;52.032;4.314;2024-02-14T03:54:49;10.60;99.90
18160;DHT22;9205;52.032;4.314;2024-02-14T03:57:16;10.80;99.90
18160;DHT22;9205;52.032;4.314;2024-02-14T03:59:43;10.80;99.90
18160;DHT22;9205;52.032;4.314;2024-02-14T04:02:10;10.50;99.90
18160;DHT22;9205;52.032;4.314;2024-02-14T04:04:41;10.60;99.90
18160;DHT22;9205;52.032;4.314;2024-02-14T04:07:09;10.40;99.90
18160;DHT22;9205;52.032;4.314;2024-02-14T04:09:36;10.90;99.90
18160;DHT22;9205;52.032;4.314;2024-02-14T04:12:04;10.60;99.90
18160;DHT22;9205;52.032;4.314;2024-02-14T04:14:32;11.00;99.90
18160;DHT22;9205;52.032;4.314;2024-02-14T04:16:59;10.90;99.90
18160;DHT22;9205;52.032;4.314;2024-02-14T04:19:27;10.80;99.90
18160;DHT22;9205;52.032;4.314;2024-02-14T04:21:55;10.60;99.90
18160;DHT22;9205;52.032;4.314;2024-02-14T04:24:23;10.80;99.90
18160;DHT22;9205;52.032;4.314;2024-02-14T04:26:50;10.90;99.90
18160;DHT22;9205;52.032;4.314;2024-02-14T04:29:17;10.90;99.90
18160;DHT22;9205;52.032;4.314;2024-02-14T04:31:44;11.00;99.90
18160;DHT22;9205;52.032;4.314;2024-02-14T04:34:11;10.50;99.90
18160;DHT22;9205;52.032;4.314;2024-02-14T04:36:39;10.90;99.90
18160;DHT22;9205;52.032;4.314;2024-02-14T04:39:08;11.00;99.90
18160;DHT22;9205;52.032;4.314;2024-02-14T04:41:35;10.90;99.90
18160;DHT22;9205;52.032;4.314;2024-02-14T04:44:03;10.40;99.90
18160;DHT22;9205;52.032;4.314;2024-02-14T04:46:32;11.10;99.90
18160;DHT22;9205;52.032;4.314;2024-02-14T04:49:00;10.90;99.90
18160;DHT22;9205;52.032;4.314;2024-02-14T04:51:28;10.40;99.90
18160;DHT22;9205;52.032;4.314;2024-02-14T04:53:56;11.00;99.90
18160;DHT22;9205;52.032;4.314;2024-02-14T04:56:26;10.70;99.90
18160;DHT22;9205;52.032;4.314;2024-02-14T04:58:53;10.90;99.90
18160;DHT22;9205;52.032;4.314;2024-02-14T05:01:22;10.80;99.90
18160;DHT22;9205;52.032;4.314;2024-02-14T05:03:49;11.00;99.90
18160;DHT22;9205;52.032;4.314;2024-02-14T05:06:16;10.60;99.90
18160;DHT22;9205;52.032;4.314;2024-02-14T05:08:43;11.10;99.90
18160;DHT22;9205;52.032;4.314;2024-02-14T05:11:10;11.10;99.90
18160;DHT22;9205;52.032;4.314;2024-02-14T05:13:39;10.60;99.90
18160;DHT22;9205;52.032;4.314;2024-02-14T05:16:07;11.10;99.90
18160;DHT22;9205;52.032;4.314;2024-02-14T05:18:36;10.90;99.90
18160;DHT22;9205;52.032;4.314;2024-02-14T05:21:05;11.00;99.90
18160;DHT22;9205;52.032;4.314;2024-02-14T05:23:33;10.60;99.90
18160;DHT22;9205;52.032;4.314;2024-02-14T05:26:01;11.20;99.90
18160;DHT22;9205;52.032;4.314;2024-02-14T05:28:29;11.10;99.90
18160;DHT22;9205;52.032;4.314;2024-02-14T05:30:58;11.00;99.90
18160;DHT22;9205;52.032;4.314;2024-02-14T05:33:26;10.70;99.90
18160;DHT22;9205;52.032;4.314;2024-02-14T05:35:53;11.30;99.90
18160;DHT22;9205;52.032;4.314;2024-02-14T05:38:20;11.40;99.90
18160;DHT22;9205;52.032;4.314;2024-02-14T05:40:47;10.80;99.90
18160;DHT22;9205;52.032;4.314;2024-02-14T05:43:15;10.90;99.90
18160;DHT22;9205;52.032;4.314;2024-02-14T05:45:43;11.40;99.90
18160;DHT22;9205;52.032;4.314;2024-02-14T05:48:12;11.20;99.90
18160;DHT22;9205;52.032;4.314;2024-02-14T05:50:40;11.00;99.90
18160;DHT22;9205;52.032;4.314;2024-02-14T05:53:07;11.50;99.90
18160;DHT22;9205;52.032;4.314;2024-02-14T05:55:34;11.00;99.90
18160;DHT22;9205;52.032;4.314;2024-02-14T05:58:02;11.50;99.90
18160;DHT22;9205;52.032;4.314;2024-02-14T06:00:30;10.90;99.90
18160;DHT22;9205;52.032;4.314;2024-02-14T06:02:57;11.60;99.90
18160;DHT22;9205;52.032;4.314;2024-02-14T06:05:25;11.10;99.90
18160;DHT22;9205;52.032;4.314;2024-02-14T06:07:52;11.40;99.90
18160;DHT22;9205;52.032;4.314;2024-02-14T06:10:20;11.30;99.90
18160;DHT22;9205;52.032;4.314;2024-02-14T06:12:47;11.60;99.90
18160;DHT22;9205;52.032;4.314;2024-02-14T06:15:15;11.60;99.90
18160;DHT22;9205;52.032;4.314;2024-02-14T06:17:42;11.20;99.90
18160;DHT22;9205;52.032;4.314;2024-02-14T06:20:10;11.30;99.90
18160;DHT22;9205;52.032;4.314;2024-02-14T06:22:39;11.20;99.90
18160;DHT22;9205;52.032;4.314;2024-02-14T06:25:07;11.40;99.90
18160;DHT22;9205;52.032;4.314;2024-02-14T06:27:34;11.40;99.90
18160;DHT22;9205;52.032;4.314;2024-02-14T06:30:03;11.50;99.90
18160;DHT22;9205;52.032;4.314;2024-02-14T06:32:30;11.50;99.90
18160;DHT22;9205;52.032;4.314;2024-02-14T06:34:58;11.30;99.90
18160;DHT22;9205;52.032;4.314;2024-02-14T06:37:25;11.00;99.90
18160;DHT22;9205;52.032;4.314;2024-02-14T06:39:53;11.60;99.90
18160;DHT22;9205;52.032;4.314;2024-02-14T06:42:20;11.10;99.90
18160;DHT22;9205;52.032;4.314;2024-02-14T06:44:48;11.60;99.90
18160;DHT22;9205;52.032;4.314;2024-02-14T06:47:15;11.50;99.90
18160;DHT22;9205;52.032;4.314;2024-02-14T06:49:42;11.10;99.90
18160;DHT22;9205;52.032;4.314;2024-02-14T06:52:09;11.30;99.90
18160;DHT22;9205;52.032;4.314;2024-02-14T06:54:36;11.70;99.90
18160;DHT22;9205;52.032;4.314;2024-02-14T06:57:05;11.70;99.90
18160;DHT22;9205;52.032;4.314;2024-02-14T06:59:33;11.40;99.90
18160;DHT22;9205;52.032;4.314;2024-02-14T07:02:02;11.60;99.90
18160;DHT22;9205;52.032;4.314;2024-02-14T07:04:31;11.30;99.90
18160;DHT22;9205;52.032;4.314;2024-02-14T07:06:58;11.30;99.90
18160;DHT22;9205;52.032;4.314;2024-02-14T07:09:26;11.40;99.90
18160;DHT22;9205;52.032;4.314;2024-02-14T07:11:54;11.40;99.90
18160;DHT22;9205;52.032;4.314;2024-02-14T07:14:23;11.20;99.90
18160;DHT22;9205;52.032;4.314;2024-02-14T07:16:50;11.60;99.90
18160;DHT22;9205;52.032;4.314;2024-02-14T07:19:18;11.20;99.90
18160;DHT22;9205;52.032;4.314;2024-02-14T07:21:45;11.20;99.90
18160;DHT22;9205;52.032;4.314;2024-02-14T07:24:12;11.30;99.90
18160;DHT22;9205;52.032;4.314;2024-02-14T07:26:39;11.30;99.90
18160;DHT22;9205;52.032;4.314;2024-02-14T07:29:09;11.20;99.90
18160;DHT22;9205;52.032;4.314;2024-02-14T07:31:37;11.50;99.90
18160;DHT22;9205;52.032;4.314;2024-02-14T07:34:05;11.70;99.90
18160;DHT22;9205;52.032;4.314;2024-02-14T07:36:32;11.20;99.90
18160;DHT22;9205;52.032;4.314;2024-02-14T07:38:59;11.60;99.90
18160;DHT22;9205;52.032;4.314;2024-02-14T07:41:26;11.30;99.90
18160;DHT22;9205;52.032;4.314;2024-02-14T07:43:53;11.40;99.90
18160;DHT22;9205;52.032;4.314;2024-02-14T07:46:22;11.80;99.90
18160;DHT22;9205;52.032;4.314;2024-02-14T07:48:53;11.30;99.90
18160;DHT22;9205;52.032;4.314;2024-02-14T07:51:20;11.70;99.90
18160;DHT22;9205;52.032;4.314;2024-02-14T07:53:49;11.60;99.90
18160;DHT22;9205;52.032;4.314;2024-02-14T07:56:16;11.50;99.90
18160;DHT22;9205;52.032;4.314;2024-02-14T07:58:44;11.80;99.90
18160;DHT22;9205;52.032;4.314;2024-02-14T08:01:11;11.90;99.90
18160;DHT22;9205;52.032;4.314;2024-02-14T08:03:40;11.20;99.90
18160;DHT22;9205;52.032;4.314;2024-02-14T08:06:08;11.40;99.90
18160;DHT22;9205;52.032;4.314;2024-02-14T08:08:36;11.20;99.90
18160;DHT22;9205;52.032;4.314;2024-02-14T08:11:04;11.70;99.90
18160;DHT22;9205;52.032;4.314;2024-02-14T08:13:31;11.70;99.90
18160;DHT22;9205;52.032;4.314;2024-02-14T08:16:00;10.90;99.90
18160;DHT22;9205;52.032;4.314;2024-02-14T08:18:27;11.20;99.90
18160;DHT22;9205;52.032;4.314;2024-02-14T08:20:54;11.30;99.90
18160;DHT22;9205;52.032;4.314;2024-02-14T08:23:23;10.90;99.90
18160;DHT22;9205;52.032;4.314;2024-02-14T08:25:50;11.10;99.90
18160;DHT22;9205;52.032;4.314;2024-02-14T08:28:17;11.00;99.90
18160;DHT22;9205;52.032;4.314;2024-02-14T08:30:46;10.80;99.90
18160;DHT22;9205;52.032;4.314;2024-02-14T08:33:13;11.10;99.90
18160;DHT22;9205;52.032;4.314;2024-02-14T08:35:41;11.20;99.90
18160;DHT22;9205;52.032;4.314;2024-02-14T08:38:09;11.50;99.90
18160;DHT22;9205;52.032;4.314;2024-02-14T08:40:37;11.00;99.90
18160;DHT22;9205;52.032;4.314;2024-02-14T08:43:05;11.20;99.90
18160;DHT22;9205;52.032;4.314;2024-02-14T08:45:33;10.90;99.90
18160;DHT22;9205;52.032;4.314;2024-02-14T08:48:00;11.00;99.90
18160;DHT22;9205;52.032;4.314;2024-02-14T08:50:28;11.40;99.90
18160;DHT22;9205;52.032;4.314;2024-02-14T08:52:56;10.80;99.90
18160;DHT22;9205;52.032;4.314;2024-02-14T08:55:23;10.80;99.90
18160;DHT22;9205;52.032;4.314;2024-02-14T08:57:52;11.50;99.90
18160;DHT22;9205;52.032;4.314;2024-02-14T09:00:19;11.30;99.90
18160;DHT22;9205;52.032;4.314;2024-02-14T09:02:47;11.50;99.90
18160;DHT22;9205;52.032;4.314;2024-02-14T09:05:15;11.50;99.90
18160;DHT22;9205;52.032;4.314;2024-02-14T09:07:43;11.40;99.90
18160;DHT22;9205;52.032;4.314;2024-02-14T09:10:10;11.00;99.90
18160;DHT22;9205;52.032;4.314;2024-02-14T09:12:38;11.10;99.90
18160;DHT22;9205;52.032;4.314;2024-02-14T09:15:08;11.40;99.90
18160;DHT22;9205;52.032;4.314;2024-02-14T09:17:37;11.20;99.90
18160;DHT22;9205;52.032;4.314;2024-02-14T09:20:09;11.50;99.90
18160;DHT22;9205;52.032;4.314;2024-02-14T09:22:39;11.00;99.90
18160;DHT22;9205;52.032;4.314;2024-02-14T09:25:08;11.20;99.90
18160;DHT22;9205;52.032;4.314;2024-02-14T09:27:35;11.00;99.90
18160;DHT22;9205;52.032;4.314;2024-02-14T09:30:03;11.40;99.90
18160;DHT22;9205;52.032;4.314;2024-02-14T09:32:34;11.40;99.90
18160;DHT22;9205;52.032;4.314;2024-02-14T09:35:01;11.60;99.90
18160;DHT22;9205;52.032;4.314;2024-02-14T09:37:30;11.20;99.90
18160;DHT22;9205;52.032;4.314;2024-02-14T09:39:57;11.60;99.90
18160;DHT22;9205;52.032;4.314;2024-02-14T09:42:28;11.50;99.90
18160;DHT22;9205;52.032;4.314;2024-02-14T09:44:59;11.30;99.90
18160;DHT22;9205;52.032;4.314;2024-02-14T09:47:30;11.10;99.90
18160;DHT22;9205;52.032;4.314;2024-02-14T09:50:01;11.00;99.90
18160;DHT22;9205;52.032;4.314;2024-02-14T09:52:32;11.20;99.90
18160;DHT22;9205;52.032;4.314;2024-02-14T09:55:01;11.20;99.90
18160;DHT22;9205;52.032;4.314;2024-02-14T09:57:31;11.60;99.90
18160;DHT22;9205;52.032;4.314;2024-02-14T10:00:01;11.60;99.90
18160;DHT22;9205;52.032;4.314;2024-02-14T10:02:30;11.50;99.90
18160;DHT22;9205;52.032;4.314;2024-02-14T10:04:59;11.60;99.90
18160;DHT22;9205;52.032;4.314;2024-02-14T10:07:27;11.50;99.90
18160;DHT22;9205;52.032;4.314;2024-02-14T10:09:54;11.00;99.90
18160;DHT22;9205;52.032;4.314;2024-02-14T10:12:22;11.40;99.90
18160;DHT22;9205;52.032;4.314;2024-02-14T10:14:50;11.60;99.90
18160;DHT22;9205;52.032;4.314;2024-02-14T10:17:18;11.20;99.90
18160;DHT22;9205;52.032;4.314;2024-02-14T10:19:55;11.40;99.90
18160;DHT22;9205;52.032;4.314;2024-02-14T10:22:27;11.00;99.90
18160;DHT22;9205;52.032;4.314;2024-02-14T10:25:00;11.20;99.90
18160;DHT22;9205;52.032;4.314;2024-02-14T10:27:27;11.00;99.90
18160;DHT22;9205;52.032;4.314;2024-02-14T10:29:56;11.30;99.90
18160;DHT22;9205;52.032;4.314;2024-02-14T10:32:23;11.40;99.90
18160;DHT22;9205;52.032;4.314;2024-02-14T10:34:51;11.10;99.90
18160;DHT22;9205;52.032;4.314;2024-02-14T10:37:21;11.50;99.90
18160;DHT22;9205;52.032;4.314;2024-02-14T10:39:52;11.30;99.90
18160;DHT22;9205;52.032;4.314;2024-02-14T10:42:22;11.70;99.90
18160;DHT22;9205;52.032;4.314;2024-02-14T10:44:49;11.70;99.90
18160;DHT22;9205;52.032;4.314;2024-02-14T10:47:20;11.70;99.90
18160;DHT22;9205;52.032;4.314;2024-02-14T10:49:50;11.70;99.90
18160;DHT22;9205;52.032;4.314;2024-02-14T10:52:20;11.40;99.90
18160;DHT22;9205;52.032;4.314;2024-02-14T10:54:56;11.30;99.90
18160;DHT22;9205;52.032;4.314;2024-02-14T10:57:24;11.70;99.90
18160;DHT22;9205;52.032;4.314;2024-02-14T10:59:51;11.50;99.90
18160;DHT22;9205;52.032;4.314;2024-02-14T11:02:20;11.60;99.90
18160;DHT22;9205;52.032;4.314;2024-02-14T11:04:50;11.70;99.90
18160;DHT22;9205;52.032;4.314;2024-02-14T11:07:20;11.80;99.90
18160;DHT22;9205;52.032;4.314;2024-02-14T11:09:52;11.70;99.90
18160;DHT22;9205;52.032;4.314;2024-02-14T11:12:33;12.00;99.90
18160;DHT22;9205;52.032;4.314;2024-02-14T11:15:09;11.40;99.90
18160;DHT22;9205;52.032;4.314;2024-02-14T11:17:38;11.80;99.90
18160;DHT22;9205;52.032;4.314;2024-02-14T11:20:17;11.90;99.90
18160;DHT22;9205;52.032;4.314;2024-02-14T11:22:54;11.60;99.90
18160;DHT22;9205;52.032;4.314;2024-02-14T11:25:28;11.60;99.90
18160;DHT22;9205;52.032;4.314;2024-02-14T11:28:00;11.60;99.90
18160;DHT22;9205;52.032;4.314;2024-02-14T11:30:29;12.10;99.90
18160;DHT22;9205;52.032;4.314;2024-02-14T11:33:15;11.70;99.90
18160;DHT22;9205;52.032;4.314;2024-02-14T11:35:46;11.40;99.90
18160;DHT22;9205;52.032;4.314;2024-02-14T11:38:16;11.40;99.90
18160;DHT22;9205;52.032;4.314;2024-02-14T11:40:44;11.70;99.90
18160;DHT22;9205;52.032;4.314;2024-02-14T11:43:12;12.00;99.90
18160;DHT22;9205;52.032;4.314;2024-02-14T11:45:41;11.70;99.90
18160;DHT22;9205;52.032;4.314;2024-02-14T11:48:10;11.80;99.90
18160;DHT22;9205;52.032;4.314;2024-02-14T11:50:39;11.70;99.90
18160;DHT22;9205;52.032;4.314;2024-02-14T11:53:07;11.90;99.90
18160;DHT22;9205;52.032;4.314;2024-02-14T11:55:36;12.10;99.90
18160;DHT22;9205;52.032;4.314;2024-02-14T11:58:08;11.50;99.90
18160;DHT22;9205;52.032;4.314;2024-02-14T12:00:37;11.90;99.90
18160;DHT22;9205;52.032;4.314;2024-02-14T12:03:07;11.60;99.90
18160;DHT22;9205;52.032;4.314;2024-02-14T12:05:37;11.60;99.90
18160;DHT22;9205;52.032;4.314;2024-02-14T12:08:05;11.90;99.90
18160;DHT22;9205;52.032;4.314;2024-02-14T12:10:35;11.90;99.90
18160;DHT22;9205;52.032;4.314;2024-02-14T12:13:11;12.20;99.90
18160;DHT22;9205;52.032;4.314;2024-02-14T12:15:39;12.20;99.90
18160;DHT22;9205;52.032;4.314;2024-02-14T12:18:08;12.10;99.90
18160;DHT22;9205;52.032;4.314;2024-02-14T12:20:35;11.70;99.90
18160;DHT22;9205;52.032;4.314;2024-02-14T12:23:04;12.00;99.90
18160;DHT22;9205;52.032;4.314;2024-02-14T12:25:32;12.10;99.90
18160;DHT22;9205;52.032;4.314;2024-02-14T12:28:00;12.10;99.90
18160;DHT22;9205;52.032;4.314;2024-02-14T12:30:43;12.30;99.90
18160;DHT22;9205;52.032;4.314;2024-02-14T12:33:13;11.90;99.90
18160;DHT22;9205;52.032;4.314;2024-02-14T12:35:42;12.40;99.90
18160;DHT22;9205;52.032;4.314;2024-02-14T12:38:11;12.30;99.90
18160;DHT22;9205;52.032;4.314;2024-02-14T12:40:40;12.30;99.90
18160;DHT22;9205;52.032;4.314;2024-02-14T12:43:08;12.00;99.90
18160;DHT22;9205;52.032;4.314;2024-02-14T12:45:37;12.40;99.90
18160;DHT22;9205;52.032;4.314;2024-02-14T12:48:06;12.30;99.90
18160;DHT22;9205;52.032;4.314;2024-02-14T12:50:34;11.90;99.90
18160;DHT22;9205;52.032;4.314;2024-02-14T12:53:03;12.10;99.90
18160;DHT22;9205;52.032;4.314;2024-02-14T12:55:31;12.50;99.90
18160;DHT22;9205;52.032;4.314;2024-02-14T12:57:58;12.50;99.90
18160;DHT22;9205;52.032;4.314;2024-02-14T13:00:26;12.10;99.90
18160;DHT22;9205;52.032;4.314;2024-02-14T13:02:56;11.90;99.90
18160;DHT22;9205;52.032;4.314;2024-02-14T13:05:23;12.60;99.90
18160;DHT22;9205;52.032;4.314;2024-02-14T13:07:51;12.00;99.90
18160;DHT22;9205;52.032;4.314;2024-02-14T13:10:18;12.20;99.90
18160;DHT22;9205;52.032;4.314;2024-02-14T13:12:45;12.70;99.90
18160;DHT22;9205;52.032;4.314;2024-02-14T13:15:13;12.50;99.90
18160;DHT22;9205;52.032;4.314;2024-02-14T13:17:40;12.00;99.90
18160;DHT22;9205;52.032;4.314;2024-02-14T13:20:09;12.10;99.90
18160;DHT22;9205;52.032;4.314;2024-02-14T13:22:37;12.40;99.90
18160;DHT22;9205;52.032;4.314;2024-02-14T13:25:05;12.40;99.90
18160;DHT22;9205;52.032;4.314;2024-02-14T13:27:32;12.10;99.90
18160;DHT22;9205;52.032;4.314;2024-02-14T13:30:00;12.80;99.90
18160;DHT22;9205;52.032;4.314;2024-02-14T13:32:27;12.30;99.90
18160;DHT22;9205;52.032;4.314;2024-02-14T13:34:54;12.40;99.90
18160;DHT22;9205;52.032;4.314;2024-02-14T13:37:24;12.30;99.90
18160;DHT22;9205;52.032;4.314;2024-02-14T13:39:51;12.90;99.90
18160;DHT22;9205;52.032;4.314;2024-02-14T13:42:18;12.30;99.90
18160;DHT22;9205;52.032;4.314;2024-02-14T13:44:45;12.30;99.90
18160;DHT22;9205;52.032;4.314;2024-02-14T13:47:13;12.80;99.90
18160;DHT22;9205;52.032;4.314;2024-02-14T13:49:41;12.90;99.90
18160;DHT22;9205;52.032;4.314;2024-02-14T13:52:08;12.90;99.90
18160;DHT22;9205;52.032;4.314;2024-02-14T13:54:37;12.90;99.90
18160;DHT22;9205;52.032;4.314;2024-02-14T13:57:04;12.60;99.90
18160;DHT22;9205;52.032;4.314;2024-02-14T13:59:31;12.80;99.90
18160;DHT22;9205;52.032;4.314;2024-02-14T14:01:59;12.80;99.90
18160;DHT22;9205;52.032;4.314;2024-02-14T14:04:26;12.90;99.90
18160;DHT22;9205;52.032;4.314;2024-02-14T14:06:53;12.20;99.90
18160;DHT22;9205;52.032;4.314;2024-02-14T14:09:21;12.70;99.90
18160;DHT22;9205;52.032;4.314;2024-02-14T14:11:49;12.70;99.90
18160;DHT22;9205;52.032;4.314;2024-02-14T14:14:18;12.70;99.90
18160;DHT22;9205;52.032;4.314;2024-02-14T14:16:45;12.60;99.90
18160;DHT22;9205;52.032;4.314;2024-02-14T14:19:13;12.20;99.90
18160;DHT22;9205;52.032;4.314;2024-02-14T14:21:40;12.60;99.90
18160;DHT22;9205;52.032;4.314;2024-02-14T14:24:07;12.80;99.90
18160;DHT22;9205;52.032;4.314;2024-02-14T14:26:34;12.40;99.90
18160;DHT22;9205;52.032;4.314;2024-02-14T14:29:03;12.60;99.90
18160;DHT22;9205;52.032;4.314;2024-02-14T14:31:31;12.90;99.90
18160;DHT22;9205;52.032;4.314;2024-02-14T14:33:59;12.40;99.90
18160;DHT22;9205;52.032;4.314;2024-02-14T14:36:26;12.90;99.90
18160;DHT22;9205;52.032;4.314;2024-02-14T14:38:53;12.80;99.90
18160;DHT22;9205;52.032;4.314;2024-02-14T14:41:21;12.90;99.90
18160;DHT22;9205;52.032;4.314;2024-02-14T14:43:48;12.60;99.90
18160;DHT22;9205;52.032;4.314;2024-02-14T14:46:16;12.70;99.90
18160;DHT22;9205;52.032;4.314;2024-02-14T14:48:43;12.10;99.90
18160;DHT22;9205;52.032;4.314;2024-02-14T14:51:11;12.00;99.90
18160;DHT22;9205;52.032;4.314;2024-02-14T14:53:38;12.50;99.90
18160;DHT22;9205;52.032;4.314;2024-02-14T14:56:06;12.80;99.90
18160;DHT22;9205;52.032;4.314;2024-02-14T14:58:34;12.40;99.90
18160;DHT22;9205;52.032;4.314;2024-02-14T15:01:02;12.60;99.90
18160;DHT22;9205;52.032;4.314;2024-02-14T15:03:31;12.10;99.90
18160;DHT22;9205;52.032;4.314;2024-02-14T15:05:59;12.70;99.90
18160;DHT22;9205;52.032;4.314;2024-02-14T15:08:26;12.60;99.90
18160;DHT22;9205;52.032;4.314;2024-02-14T15:10:54;12.70;99.90
18160;DHT22;9205;52.032;4.314;2024-02-14T15:13:22;12.40;99.90
18160;DHT22;9205;52.032;4.314;2024-02-14T15:15:50;12.50;99.90
18160;DHT22;9205;52.032;4.314;2024-02-14T15:18:17;12.10;99.90
18160;DHT22;9205;52.032;4.314;2024-02-14T15:20:46;11.80;99.90
18160;DHT22;9205;52.032;4.314;2024-02-14T15:23:13;12.40;99.90
18160;DHT22;9205;52.032;4.314;2024-02-14T15:25:40;12.50;99.90
18160;DHT22;9205;52.032;4.314;2024-02-14T15:28:09;12.00;99.90
18160;DHT22;9205;52.032;4.314;2024-02-14T15:30:39;12.50;99.90
18160;DHT22;9205;52.032;4.314;2024-02-14T15:33:24;12.40;99.90
18160;DHT22;9205;52.032;4.314;2024-02-14T15:35:56;12.50;99.90
18160;DHT22;9205;52.032;4.314;2024-02-14T15:38:25;11.90;99.90
18160;DHT22;9205;52.032;4.314;2024-02-14T15:40:54;11.80;99.90
18160;DHT22;9205;52.032;4.314;2024-02-14T15:43:23;12.40;99.90
18160;DHT22;9205;52.032;4.314;2024-02-14T15:45:51;12.50;99.90
18160;DHT22;9205;52.032;4.314;2024-02-14T15:48:18;12.60;99.90
18160;DHT22;9205;52.032;4.314;2024-02-14T15:50:46;11.90;99.90
18160;DHT22;9205;52.032;4.314;2024-02-14T15:53:15;12.70;99.90